createdAt,value
2022-11-07T00:01:47.495Z,15.62
2022-11-07T00:04:15.438Z,15.67
2022-11-07T00:06:43.289Z,15.77
2022-11-07T00:09:11.011Z,15.58
2022-11-07T00:11:38.712Z,15.78
2022-11-07T00:14:06.602Z,15.58
2022-11-07T00:16:35.669Z,15.58
2022-11-07T00:19:03.444Z,15.71
2022-11-07T00:21:31.153Z,15.69
2022-11-07T00:23:58.895Z,15.70
2022-11-07T00:26:26.771Z,15.63
2022-11-07T00:28:54.649Z,15.48
2022-11-07T00:31:22.317Z,15.28
2022-11-07T00:33:51.618Z,15.58
2022-11-07T00:36:21.764Z,15.57
2022-11-07T00:38:49.471Z,15.55
2022-11-07T00:41:18.350Z,15.47
2022-11-07T00:43:46.541Z,15.42
2022-11-07T00:46:15.733Z,15.19
2022-11-07T00:48:44.077Z,15.49
2022-11-07T00:51:15.497Z,15.41
2022-11-07T00:53:43.624Z,15.56
2022-11-07T00:56:13.465Z,15.52
2022-11-07T00:58:42.735Z,15.63
2022-11-07T01:01:11.631Z,15.59
2022-11-07T01:03:56.853Z,15.54
2022-11-07T01:06:28.020Z,15.90
2022-11-07T01:08:56.594Z,15.81
2022-11-07T01:11:25.745Z,16.04
2022-11-07T01:13:56.159Z,15.94
2022-11-07T01:16:24.336Z,16.04
2022-11-07T01:18:52.027Z,15.90
2022-11-07T01:21:19.804Z,15.95
2022-11-07T01:23:49.040Z,15.94
2022-11-07T01:26:17.181Z,15.54
2022-11-07T01:28:45.079Z,15.77
2022-11-07T01:31:14.714Z,15.78
2022-11-07T01:33:42.865Z,15.99
2022-11-07T01:36:14.487Z,15.86
2022-11-07T01:38:44.082Z,15.69
2022-11-07T01:41:25.402Z,15.77
2022-11-07T01:43:57.819Z,15.50
2022-11-07T01:46:28.875Z,15.47
2022-11-07T01:49:04.015Z,15.66
2022-11-07T01:51:36.384Z,15.83
2022-11-07T01:54:05.441Z,15.97
2022-11-07T01:56:38.526Z,15.92
2022-11-07T01:59:07.427Z,16.00
2022-11-07T02:01:35.265Z,16.02
2022-11-07T02:04:03.741Z,15.54
2022-11-07T02:06:38.661Z,15.89
2022-11-07T02:09:06.651Z,15.49
2022-11-07T02:11:36.133Z,15.59
2022-11-07T02:14:03.849Z,15.78
2022-11-07T02:16:32.944Z,15.74
2022-11-07T02:19:01.059Z,16.12
2022-11-07T02:21:43.092Z,15.58
2022-11-07T02:24:24.761Z,15.62
2022-11-07T02:26:53.951Z,15.21
2022-11-07T02:29:23.847Z,15.58
2022-11-07T02:32:02.315Z,15.45
2022-11-07T02:34:30.154Z,16.07
2022-11-07T02:36:58.944Z,15.90
2022-11-07T02:39:28.207Z,16.12
2022-11-07T02:41:59.071Z,15.95
2022-11-07T02:44:27.748Z,15.97
2022-11-07T02:46:55.635Z,15.61
2022-11-07T02:49:23.335Z,15.87
2022-11-07T02:51:51.084Z,16.13
2022-11-07T02:54:18.823Z,16.27
2022-11-07T02:56:47.931Z,16.42
2022-11-07T02:59:15.616Z,16.15
2022-11-07T03:01:43.398Z,16.23
2022-11-07T03:04:11.268Z,16.31
2022-11-07T03:06:39.056Z,16.22
2022-11-07T03:09:06.761Z,16.29
2022-11-07T03:11:34.441Z,16.27
2022-11-07T03:14:03.509Z,16.35
2022-11-07T03:16:31.203Z,16.32
2022-11-07T03:18:58.943Z,16.47
2022-11-07T03:21:26.606Z,16.51
2022-11-07T03:23:54.404Z,16.30
2022-11-07T03:26:22.083Z,16.40
2022-11-07T03:28:49.767Z,16.42
2022-11-07T03:31:19.030Z,16.42
2022-11-07T03:33:46.856Z,16.24
2022-11-07T03:36:14.568Z,16.24
2022-11-07T03:38:42.320Z,16.18
2022-11-07T03:41:10.059Z,15.75
2022-11-07T03:43:37.744Z,16.02
2022-11-07T03:46:05.503Z,16.32
2022-11-07T03:48:34.594Z,16.12
2022-11-07T03:51:02.324Z,16.12
2022-11-07T03:53:30.021Z,16.27
2022-11-07T03:55:57.963Z,16.45
2022-11-07T03:58:26.157Z,16.40
2022-11-07T04:00:53.967Z,16.02
2022-11-07T04:03:21.625Z,16.15
2022-11-07T04:05:50.704Z,16.42
2022-11-07T04:08:18.546Z,16.36
2022-11-07T04:10:46.304Z,16.31
2022-11-07T04:13:31.760Z,16.37
2022-11-07T04:16:17.870Z,16.44
2022-11-07T04:18:45.744Z,16.55
2022-11-07T04:21:15.091Z,16.50
2022-11-07T04:23:42.787Z,16.50
2022-11-07T04:26:28.020Z,16.38
2022-11-07T04:28:55.732Z,16.43
2022-11-07T04:31:23.444Z,16.39
2022-11-07T04:33:51.219Z,16.44
2022-11-07T04:36:20.333Z,16.36
2022-11-07T04:38:48.084Z,16.23
2022-11-07T04:41:24.626Z,16.19
2022-11-07T04:43:52.589Z,16.31
2022-11-07T04:46:20.657Z,16.04
2022-11-07T04:48:48.408Z,16.19
2022-11-07T04:51:18.235Z,16.31
2022-11-07T04:53:47.277Z,16.07
2022-11-07T04:56:15.071Z,15.99
2022-11-07T04:58:42.852Z,16.18
2022-11-07T05:01:10.546Z,16.23
2022-11-07T05:03:41.920Z,16.30
2022-11-07T05:06:13.410Z,16.24
2022-11-07T05:08:41.180Z,16.28
2022-11-07T05:11:10.262Z,16.10
2022-11-07T05:13:38.012Z,16.03
2022-11-07T05:16:06.393Z,16.12
2022-11-07T05:18:34.185Z,16.17
2022-11-07T05:21:01.936Z,16.07
2022-11-07T05:23:28.628Z,15.98
2022-11-07T05:25:56.771Z,16.28
2022-11-07T05:28:36.863Z,16.29
2022-11-07T05:31:09.335Z,16.21
2022-11-07T05:33:37.361Z,16.23
2022-11-07T05:36:13.549Z,16.20
2022-11-07T05:38:43.087Z,16.08
2022-11-07T05:41:10.900Z,16.11
2022-11-07T05:43:40.658Z,15.95
2022-11-07T05:46:08.632Z,16.01
2022-11-07T05:48:37.070Z,15.78
2022-11-07T05:51:05.138Z,15.67
2022-11-07T05:53:34.414Z,15.76
2022-11-07T05:56:02.452Z,16.05
2022-11-07T05:58:30.169Z,16.07
2022-11-07T06:01:03.473Z,15.78
2022-11-07T06:03:31.021Z,15.93
2022-11-07T06:05:58.803Z,16.02
2022-11-07T06:08:26.729Z,16.11
2022-11-07T06:10:54.438Z,16.28
2022-11-07T06:13:22.145Z,16.26
2022-11-07T06:15:50.008Z,16.02
2022-11-07T06:18:20.685Z,15.93
2022-11-07T06:20:48.570Z,16.21
2022-11-07T06:23:17.230Z,16.28
2022-11-07T06:25:45.294Z,16.28
2022-11-07T06:28:14.680Z,16.45
2022-11-07T06:30:43.139Z,16.55
2022-11-07T06:33:13.602Z,16.55
2022-11-07T06:35:43.438Z,16.38
2022-11-07T06:38:13.184Z,16.40
2022-11-07T06:40:42.463Z,16.42
2022-11-07T06:43:12.590Z,16.50
2022-11-07T06:45:40.669Z,16.56
2022-11-07T06:48:08.986Z,16.19
2022-11-07T06:50:37.162Z,16.34
2022-11-07T06:53:07.953Z,16.52
2022-11-07T06:55:36.256Z,16.42
2022-11-07T06:58:04.795Z,16.08
2022-11-07T07:00:34.247Z,16.27
2022-11-07T07:03:02.248Z,16.09
2022-11-07T07:05:30.123Z,16.32
2022-11-07T07:07:57.913Z,16.45
2022-11-07T07:10:27.004Z,16.27
2022-11-07T07:12:56.475Z,16.35
2022-11-07T07:15:24.396Z,16.39
2022-11-07T07:17:52.183Z,16.09
2022-11-07T07:20:20.063Z,16.20
2022-11-07T07:22:51.989Z,16.17
2022-11-07T07:25:24.866Z,16.27
2022-11-07T07:27:53.991Z,16.23
2022-11-07T07:30:21.796Z,16.32
2022-11-07T07:32:49.470Z,15.82
2022-11-07T07:35:17.435Z,16.21
2022-11-07T07:37:45.100Z,16.02
2022-11-07T07:40:13.442Z,16.08
2022-11-07T07:42:44.969Z,15.96
2022-11-07T07:45:16.071Z,16.24
2022-11-07T07:47:44.016Z,16.19
2022-11-07T07:50:13.217Z,15.98
2022-11-07T07:52:41.203Z,16.06
2022-11-07T07:55:10.065Z,16.13
2022-11-07T07:57:42.330Z,16.22
2022-11-07T08:00:12.181Z,16.48
2022-11-07T08:02:43.527Z,16.20
2022-11-07T08:05:11.972Z,16.60
2022-11-07T08:07:46.148Z,16.53
2022-11-07T08:10:39.717Z,16.63
2022-11-07T08:13:01.797Z,16.39
2022-11-07T08:15:29.605Z,16.37
2022-11-07T08:18:02.087Z,16.62
2022-11-07T08:20:29.813Z,16.64
2022-11-07T08:23:12.956Z,16.71
2022-11-07T08:25:44.097Z,16.66
2022-11-07T08:28:12.000Z,16.96
2022-11-07T08:30:39.745Z,17.14
2022-11-07T08:33:09.223Z,17.13
2022-11-07T08:35:42.282Z,16.88
2022-11-07T08:38:10.680Z,17.14
2022-11-07T08:40:38.398Z,17.11
2022-11-07T08:43:06.130Z,17.03
2022-11-07T08:45:33.863Z,17.00
2022-11-07T08:48:01.945Z,17.22
2022-11-07T08:50:31.221Z,17.27
2022-11-07T08:53:14.417Z,17.47
2022-11-07T08:55:42.190Z,17.43
2022-11-07T08:58:10.092Z,17.49
2022-11-07T09:00:37.827Z,17.73
2022-11-07T09:05:57.724Z,17.29
2022-11-07T09:08:25.483Z,17.40
2022-11-07T09:10:53.200Z,17.35
2022-11-07T09:13:21.181Z,17.38
2022-11-07T09:15:51.438Z,17.25
2022-11-07T09:18:19.710Z,17.55
2022-11-07T09:20:47.569Z,17.47
2022-11-07T09:23:17.079Z,17.56
2022-11-07T09:25:45.058Z,17.77
2022-11-07T09:28:13.279Z,17.64
2022-11-07T09:30:40.965Z,17.77
2022-11-07T09:33:08.753Z,17.84
2022-11-07T09:35:36.573Z,17.59
2022-11-07T09:38:04.248Z,17.63
2022-11-07T09:40:42.866Z,18.27
2022-11-07T09:43:29.610Z,17.99
2022-11-07T09:46:05.787Z,18.17
2022-11-07T09:48:42.533Z,17.56
2022-11-07T09:51:15.589Z,17.80
2022-11-07T09:53:48.473Z,17.76
2022-11-07T09:56:17.541Z,18.02
2022-11-07T09:58:50.632Z,18.20
2022-11-07T10:01:20.639Z,18.19
2022-11-07T10:04:18.156Z,18.31
2022-11-07T10:06:45.227Z,18.37
2022-11-07T10:09:17.825Z,18.39
2022-11-07T10:11:54.539Z,18.53
2022-11-07T10:14:32.662Z,18.04
2022-11-07T10:17:14.991Z,18.26
2022-11-07T10:19:58.113Z,18.22
2022-11-07T10:22:41.173Z,17.67
2022-11-07T10:25:21.575Z,18.41
2022-11-07T10:27:56.198Z,18.36
2022-11-07T10:30:23.893Z,18.45
2022-11-07T10:32:59.680Z,18.41
2022-11-07T10:35:31.790Z,19.01
2022-11-07T10:38:02.087Z,18.22
2022-11-07T10:40:34.569Z,18.77
2022-11-07T10:43:07.011Z,18.61
2022-11-07T10:45:34.785Z,18.54
2022-11-07T10:48:04.490Z,18.55
2022-11-07T10:50:32.880Z,18.74
2022-11-07T10:53:03.324Z,18.67
2022-11-07T10:55:43.110Z,19.11
2022-11-07T10:58:20.930Z,19.04
2022-11-07T11:00:59.508Z,18.65
2022-11-07T11:03:43.301Z,18.56
2022-11-07T11:06:23.000Z,18.08
2022-11-07T11:08:53.278Z,18.64
2022-11-07T11:11:32.171Z,18.41
2022-11-07T11:14:12.013Z,17.92
2022-11-07T11:16:41.557Z,18.58
2022-11-07T11:19:20.562Z,18.82
2022-11-07T11:21:49.793Z,18.44
2022-11-07T11:24:26.242Z,18.25
2022-11-07T11:26:56.457Z,18.63
2022-11-07T11:29:39.190Z,18.39
2022-11-07T11:32:16.940Z,18.65
2022-11-07T11:34:54.749Z,18.49
2022-11-07T11:37:24.370Z,18.68
2022-11-07T11:40:05.364Z,18.67
2022-11-07T11:42:39.042Z,18.91
2022-11-07T11:45:17.877Z,19.34
2022-11-07T11:47:53.975Z,19.23
2022-11-07T11:50:28.653Z,19.65
2022-11-07T11:52:56.423Z,19.08
2022-11-07T11:55:26.887Z,19.19
2022-11-07T11:58:05.790Z,18.94
2022-11-07T12:00:41.116Z,18.73
2022-11-07T12:03:28.434Z,18.75
2022-11-07T12:06:25.336Z,18.80
2022-11-07T12:09:23.101Z,19.48
2022-11-07T12:12:02.539Z,19.20
2022-11-07T12:14:45.569Z,19.73
2022-11-07T12:17:24.721Z,20.50
2022-11-07T12:19:59.336Z,19.90
2022-11-07T12:22:40.663Z,20.20
2022-11-07T12:25:16.025Z,20.44
2022-11-07T12:27:55.161Z,20.79
2022-11-07T12:30:31.349Z,20.83
2022-11-07T12:33:13.525Z,19.99
2022-11-07T12:35:46.527Z,20.16
2022-11-07T12:38:50.743Z,19.98
2022-11-07T12:41:27.292Z,19.22
2022-11-07T12:44:05.525Z,19.31
2022-11-07T12:46:45.272Z,19.34
2022-11-07T12:49:44.252Z,19.20
2022-11-07T12:52:23.704Z,20.03
2022-11-07T12:54:57.170Z,19.17
2022-11-07T12:57:27.857Z,19.45
2022-11-07T13:00:00.938Z,19.23
2022-11-07T13:02:44.851Z,19.26
2022-11-07T13:05:36.876Z,18.78
2022-11-07T13:08:11.710Z,19.77
2022-11-07T13:10:49.689Z,18.94
2022-11-07T13:13:22.633Z,19.42
2022-11-07T13:16:14.189Z,19.22
2022-11-07T13:18:38.186Z,19.10
2022-11-07T13:21:08.791Z,19.96
2022-11-07T13:23:36.541Z,20.14
2022-11-07T13:26:25.940Z,19.41
2022-11-07T13:28:58.628Z,19.23
2022-11-07T13:31:35.336Z,19.44
2022-11-07T13:34:24.548Z,20.10
2022-11-07T13:37:00.771Z,20.42
2022-11-07T13:39:30.509Z,20.30
2022-11-07T13:42:00.457Z,19.51
2022-11-07T13:44:32.578Z,19.85
2022-11-07T13:47:05.132Z,19.99
2022-11-07T13:49:44.267Z,20.34
2022-11-07T13:52:20.751Z,20.60
2022-11-07T13:54:56.966Z,20.13
2022-11-07T13:57:31.064Z,19.77
2022-11-07T14:00:05.021Z,19.84
2022-11-07T14:02:35.190Z,20.00
2022-11-07T14:05:22.063Z,20.46
2022-11-07T14:07:55.211Z,20.75
2022-11-07T14:10:27.688Z,20.94
2022-11-07T14:13:03.794Z,20.47
2022-11-07T14:15:31.917Z,20.55
2022-11-07T14:17:59.647Z,19.89
2022-11-07T14:20:27.374Z,20.14
2022-11-07T14:22:58.341Z,20.13
2022-11-07T14:25:30.331Z,19.86
2022-11-07T14:27:58.916Z,20.34
2022-11-07T14:30:28.788Z,20.40
2022-11-07T14:32:58.467Z,20.05
2022-11-07T14:35:28.801Z,20.13
2022-11-07T14:37:58.961Z,19.80
2022-11-07T14:40:28.710Z,19.91
2022-11-07T14:42:56.430Z,19.08
2022-11-07T14:45:56.609Z,19.33
2022-11-07T14:48:14.287Z,19.13
2022-11-07T14:50:43.026Z,19.50
2022-11-07T14:53:19.865Z,19.66
2022-11-07T14:55:51.251Z,19.59
2022-11-07T14:58:23.538Z,19.32
2022-11-07T15:00:56.727Z,19.51
2022-11-07T15:03:32.827Z,19.37
2022-11-07T15:06:00.544Z,19.53
2022-11-07T15:08:32.308Z,19.14
2022-11-07T15:11:08.725Z,19.26
2022-11-07T15:13:36.735Z,19.20
2022-11-07T15:16:07.277Z,18.78
2022-11-07T15:18:40.123Z,19.07
2022-11-07T15:21:11.253Z,19.04
2022-11-07T15:23:40.456Z,19.28
2022-11-07T15:26:13.581Z,18.77
2022-11-07T15:28:52.145Z,19.18
2022-11-07T15:31:22.616Z,18.95
2022-11-07T15:33:51.197Z,18.90
2022-11-07T15:36:19.455Z,19.21
2022-11-07T15:38:50.431Z,18.72
2022-11-07T15:41:18.871Z,19.37
2022-11-07T15:43:46.730Z,19.41
2022-11-07T15:46:25.406Z,19.02
2022-11-07T15:48:53.829Z,18.70
2022-11-07T15:51:21.576Z,18.99
2022-11-07T15:53:50.830Z,18.75
2022-11-07T15:56:23.046Z,18.97
2022-11-07T15:58:51.373Z,18.87
2022-11-07T16:01:19.338Z,18.72
2022-11-07T16:03:47.143Z,18.54
2022-11-07T16:06:26.169Z,18.71
2022-11-07T16:08:55.928Z,18.45
2022-11-07T16:11:25.504Z,18.41
2022-11-07T16:13:59.358Z,18.47
2022-11-07T16:16:36.699Z,18.52
2022-11-07T16:19:04.565Z,18.70
2022-11-07T16:21:32.357Z,18.47
2022-11-07T16:24:01.456Z,18.39
2022-11-07T16:26:30.893Z,18.49
2022-11-07T16:28:58.715Z,18.58
2022-11-07T16:31:26.420Z,18.47
2022-11-07T16:33:54.345Z,18.36
2022-11-07T16:36:24.383Z,18.56
2022-11-07T16:38:52.970Z,18.63
2022-11-07T16:41:22.491Z,18.58
2022-11-07T16:43:50.441Z,18.51
2022-11-07T16:46:21.284Z,18.39
2022-11-07T16:48:51.226Z,18.40
2022-11-07T16:51:21.118Z,18.57
2022-11-07T16:53:49.284Z,18.34
2022-11-07T16:56:25.177Z,18.42
2022-11-07T16:58:54.470Z,18.51
2022-11-07T17:01:23.590Z,18.26
2022-11-07T17:03:51.772Z,18.43
2022-11-07T17:06:23.113Z,18.59
2022-11-07T17:08:50.861Z,18.43
2022-11-07T17:11:19.392Z,18.42
2022-11-07T17:13:48.556Z,18.40
2022-11-07T17:16:19.769Z,18.36
2022-11-07T17:18:48.893Z,18.30
2022-11-07T17:21:25.762Z,18.42
2022-11-07T17:23:55.271Z,18.28
2022-11-07T17:26:25.218Z,18.41
2022-11-07T17:28:54.312Z,18.25
2022-11-07T17:31:22.313Z,18.26
2022-11-07T17:33:50.153Z,18.14
2022-11-07T17:36:35.354Z,18.29
2022-11-07T17:39:07.986Z,18.17
2022-11-07T17:41:35.800Z,18.16
2022-11-07T17:44:05.613Z,17.90
2022-11-07T17:46:35.027Z,17.97
2022-11-07T17:49:04.819Z,18.20
2022-11-07T17:51:32.600Z,18.15
2022-11-07T17:54:00.589Z,17.91
2022-11-07T17:56:29.890Z,18.08
2022-11-07T17:58:59.726Z,17.92
2022-11-07T18:01:31.216Z,17.69
2022-11-07T18:03:59.472Z,18.07
2022-11-07T18:06:28.025Z,17.77
2022-11-07T18:08:58.369Z,17.93
2022-11-07T18:11:29.270Z,18.08
2022-11-07T18:13:58.332Z,18.04
2022-11-07T18:16:29.437Z,17.84
2022-11-07T18:18:59.176Z,17.96
2022-11-07T18:21:27.742Z,17.61
2022-11-07T18:23:55.604Z,17.64
2022-11-07T18:26:26.628Z,17.74
2022-11-07T18:28:54.537Z,17.58
2022-11-07T18:31:24.754Z,17.71
2022-11-07T18:33:58.110Z,17.61
2022-11-07T18:36:26.189Z,17.72
2022-11-07T18:38:54.004Z,17.83
2022-11-07T18:41:23.654Z,17.65
2022-11-07T18:43:53.759Z,17.64
2022-11-07T18:46:21.980Z,17.37
2022-11-07T18:48:50.726Z,17.69
2022-11-07T18:51:25.856Z,17.67
2022-11-07T18:53:54.890Z,17.75
2022-11-07T18:56:23.118Z,17.62
2022-11-07T18:58:50.841Z,17.61
2022-11-07T19:01:21.745Z,17.68
2022-11-07T19:03:49.623Z,17.67
2022-11-07T19:06:21.269Z,17.39
2022-11-07T19:08:49.367Z,17.52
2022-11-07T19:11:19.569Z,17.45
2022-11-07T19:13:48.251Z,17.50
2022-11-07T19:16:18.316Z,17.56
2022-11-07T19:18:49.685Z,17.54
2022-11-07T19:21:19.873Z,17.78
2022-11-07T19:23:49.977Z,17.81
2022-11-07T19:26:18.968Z,17.72
2022-11-07T19:28:47.768Z,17.75
2022-11-07T19:31:15.702Z,17.57
2022-11-07T19:33:44.253Z,17.75
2022-11-07T19:36:14.801Z,17.67
2022-11-07T19:38:43.037Z,17.68
2022-11-07T19:41:13.521Z,17.78
2022-11-07T19:43:42.524Z,17.66
2022-11-07T19:46:12.961Z,17.60
2022-11-07T19:48:40.684Z,17.60
2022-11-07T19:51:10.072Z,17.73
2022-11-07T19:53:37.901Z,17.71
2022-11-07T19:56:08.573Z,17.36
2022-11-07T19:58:37.976Z,17.45
2022-11-07T20:01:11.266Z,17.42
2022-11-07T20:03:38.926Z,17.71
2022-11-07T20:06:11.764Z,17.47
2022-11-07T20:08:40.151Z,17.45
2022-11-07T20:11:08.052Z,17.54
2022-11-07T20:13:37.184Z,17.58
2022-11-07T20:16:05.200Z,17.62
2022-11-07T20:18:32.929Z,17.54
2022-11-07T20:21:02.685Z,17.36
2022-11-07T20:23:30.401Z,17.33
2022-11-07T20:25:58.549Z,17.49
2022-11-07T20:28:26.628Z,17.37
2022-11-07T20:30:56.085Z,17.21
2022-11-07T20:33:25.269Z,17.13
2022-11-07T20:36:00.736Z,17.18
2022-11-07T20:38:29.135Z,17.07
2022-11-07T20:40:57.171Z,17.23
2022-11-07T20:43:25.278Z,17.44
2022-11-07T20:45:53.088Z,17.55
2022-11-07T20:48:22.512Z,17.60
2022-11-07T20:50:50.428Z,17.63
2022-11-07T20:53:18.608Z,17.53
2022-11-07T20:55:46.845Z,17.43
2022-11-07T20:58:14.544Z,17.15
2022-11-07T21:00:42.917Z,16.95
2022-11-07T21:03:16.038Z,17.25
2022-11-07T21:05:45.171Z,17.04
2022-11-07T21:08:12.851Z,17.05
2022-11-07T21:10:40.536Z,17.00
2022-11-07T21:13:08.292Z,16.86
2022-11-07T21:15:36.900Z,16.90
2022-11-07T21:18:04.720Z,16.83
2022-11-07T21:20:32.459Z,16.84
2022-11-07T21:23:01.652Z,16.98
2022-11-07T21:25:29.477Z,16.89
2022-11-07T21:27:57.236Z,17.00
2022-11-07T21:30:24.997Z,16.83
2022-11-07T21:32:53.147Z,16.78
2022-11-07T21:35:22.836Z,16.82
2022-11-07T21:37:50.661Z,16.57
2022-11-07T21:40:19.988Z,16.60
2022-11-07T21:42:47.729Z,16.59
2022-11-07T21:45:15.488Z,16.43
2022-11-07T21:47:45.887Z,16.64
2022-11-07T21:50:42.537Z,16.73
2022-11-07T21:53:05.328Z,16.37
2022-11-07T21:55:34.460Z,16.59
2022-11-07T21:58:02.160Z,16.63
2022-11-07T22:00:34.726Z,16.54
2022-11-07T22:03:03.417Z,16.47
2022-11-07T22:05:31.199Z,16.47
2022-11-07T22:07:58.954Z,16.52
2022-11-07T22:10:26.742Z,16.47
2022-11-07T22:12:55.767Z,16.35
2022-11-07T22:15:23.473Z,16.40
2022-11-07T22:17:51.214Z,16.39
2022-11-07T22:20:18.974Z,16.49
2022-11-07T22:22:46.687Z,16.36
2022-11-07T22:25:14.508Z,16.32
2022-11-07T22:27:42.266Z,16.20
2022-11-07T22:30:12.393Z,16.23
2022-11-07T22:32:40.154Z,16.16
2022-11-07T22:35:09.474Z,16.28
2022-11-07T22:37:37.393Z,16.11
2022-11-07T22:40:05.722Z,16.18
2022-11-07T22:42:33.488Z,16.04
2022-11-07T22:45:01.176Z,16.09
2022-11-07T22:47:30.268Z,15.92
2022-11-07T22:49:58.028Z,16.25
2022-11-07T22:52:25.792Z,16.12
2022-11-07T22:54:53.474Z,16.11
2022-11-07T22:57:21.156Z,16.09
2022-11-07T22:59:48.961Z,16.00
2022-11-07T23:02:17.033Z,15.99
2022-11-07T23:04:46.208Z,16.28
2022-11-07T23:07:14.312Z,16.07
2022-11-07T23:09:42.058Z,15.70
2022-11-07T23:12:09.767Z,15.95
2022-11-07T23:14:37.536Z,16.00
2022-11-07T23:17:05.193Z,15.82
2022-11-07T23:19:32.935Z,15.73
2022-11-07T23:22:02.133Z,15.70
2022-11-07T23:24:30.220Z,15.85
2022-11-07T23:26:58.360Z,16.01
2022-11-07T23:29:26.197Z,15.81
2022-11-07T23:31:54.248Z,15.91
2022-11-07T23:34:22.935Z,16.11
2022-11-07T23:36:51.918Z,16.02
2022-11-07T23:39:22.581Z,16.21
2022-11-07T23:41:50.364Z,16.18
2022-11-07T23:44:18.292Z,16.07
2022-11-07T23:47:03.791Z,16.32
2022-11-07T23:49:48.999Z,16.35
2022-11-07T23:52:17.301Z,16.39
2022-11-07T23:55:03.993Z,16.14
2022-11-07T23:57:35.038Z,16.29
